Time;durP1;ratioP1;P1;durP2;ratioP2;P2;SDS_P1;SDS_P2;PMS_P1;PMS_P2;Temp;Humidity;BMP_temperature;BMP_pressure;BME280_temperature;BME280_humidity;BME280_pressure;Samples;Min_cycle;Max_cycle;Signal;HPM_P1;HPM_P2
2021/04/25 00:02:04;;;;;;;12.60;6.10;;;5.80;68.50;;;;;;5048904;28;20021;-73
2021/04/25 00:04:30;;;;;;;15.47;6.37;;;5.80;69.20;;;;;;5049494;28;20124;-77
2021/04/25 00:06:56;;;;;;;11.73;5.77;;;5.80;69.30;;;;;;5048406;28;20183;-75
2021/04/25 00:09:21;;;;;;;10.10;5.47;;;5.80;69.40;;;;;;5049053;28;20039;-75
2021/04/25 00:11:48;;;;;;;14.87;5.90;;;5.70;69.30;;;;;;5042794;28;20046;-74
2021/04/25 00:14:13;;;;;;;11.10;5.27;;;5.60;69.60;;;;;;5029086;28;20484;-74
2021/04/25 00:16:39;;;;;;;13.97;5.67;;;5.70;70.10;;;;;;5028188;28;20040;-74
2021/04/25 00:19:05;;;;;;;10.47;5.57;;;5.80;69.90;;;;;;5030566;28;20030;-74
2021/04/25 00:21:32;;;;;;;9.53;5.17;;;5.80;69.80;;;;;;5012632;28;20029;-77
2021/04/25 00:23:58;;;;;;;8.70;5.90;;;5.90;70.40;;;;;;5032061;28;20029;-74
2021/04/25 00:26:24;;;;;;;10.87;5.60;;;6.00;70.40;;;;;;5049959;28;20060;-75
2021/04/25 00:28:50;;;;;;;13.97;5.63;;;6.00;69.80;;;;;;5039107;28;20494;-74
2021/04/25 00:31:15;;;;;;;14.60;6.53;;;6.00;69.50;;;;;;5028916;28;20038;-74
2021/04/25 00:33:42;;;;;;;10.97;5.70;;;5.90;69.70;;;;;;5029473;28;20048;-74
2021/04/25 00:36:07;;;;;;;14.33;6.40;;;6.00;70.30;;;;;;5030382;28;20036;-74
2021/04/25 00:38:33;;;;;;;10.73;5.90;;;6.00;69.90;;;;;;5030268;28;20489;-74
2021/04/25 00:40:59;;;;;;;11.00;6.00;;;5.90;70.00;;;;;;5029329;28;20083;-75
2021/04/25 00:43:24;;;;;;;10.13;6.47;;;6.00;70.50;;;;;;5030124;28;20034;-74
2021/04/25 00:45:50;;;;;;;12.53;5.50;;;6.00;70.60;;;;;;5028113;28;20030;-75
2021/04/25 00:48:16;;;;;;;10.40;5.67;;;6.10;70.70;;;;;;5036082;28;20036;-73
2021/04/25 00:50:42;;;;;;;11.20;5.77;;;6.20;70.60;;;;;;5048991;28;20029;-74
2021/04/25 00:53:07;;;;;;;12.10;5.97;;;6.10;70.30;;;;;;5048489;28;20419;-74
2021/04/25 00:55:34;;;;;;;9.70;5.53;;;6.00;70.60;;;;;;5047062;28;20040;-74
2021/04/25 00:58:02;;;;;;;10.10;5.23;;;6.00;70.50;;;;;;5047217;28;20025;-73
2021/04/25 01:00:28;;;;;;;15.17;7.07;;;6.00;70.50;;;;;;5048970;28;20109;-73
2021/04/25 01:02:54;;;;;;;12.00;5.73;;;5.90;70.50;;;;;;5047684;28;20506;-73
2021/04/25 01:05:22;;;;;;;10.90;6.07;;;5.90;71.10;;;;;;5048134;28;20110;-74
2021/04/25 01:07:48;;;;;;;12.97;6.10;;;5.90;70.80;;;;;;5049987;28;20036;-74
2021/04/25 01:10:16;;;;;;;12.07;6.37;;;5.80;71.10;;;;;;5053402;28;20025;-73
2021/04/25 01:12:42;;;;;;;12.10;5.97;;;5.80;71.30;;;;;;5052369;28;20041;-77
2021/04/25 01:15:10;;;;;;;14.73;6.03;;;5.80;71.40;;;;;;5055431;28;20116;-74
2021/04/25 01:17:39;;;;;;;8.70;6.10;;;5.70;71.20;;;;;;5052055;28;20056;-74
2021/04/25 01:20:06;;;;;;;12.33;6.30;;;5.80;72.20;;;;;;5051342;28;20048;-73
2021/04/25 01:22:32;;;;;;;10.70;5.60;;;5.80;71.90;;;;;;5053547;28;20075;-74
2021/04/25 01:24:58;;;;;;;9.93;5.73;;;5.80;71.80;;;;;;5052157;28;20033;-74
2021/04/25 01:27:23;;;;;;;13.67;6.27;;;5.80;71.70;;;;;;5053488;28;20116;-75
2021/04/25 01:29:49;;;;;;;9.90;5.90;;;5.70;71.60;;;;;;5050702;28;20119;-74
2021/04/25 01:32:15;;;;;;;10.83;5.93;;;5.70;72.30;;;;;;5051686;28;20071;-75
2021/04/25 01:34:40;;;;;;;13.47;6.97;;;5.70;72.30;;;;;;5051658;28;20033;-74
2021/04/25 01:37:06;;;;;;;14.03;7.57;;;5.60;72.20;;;;;;5047501;28;20140;-75
2021/04/25 01:39:32;;;;;;;13.87;7.30;;;5.70;72.40;;;;;;5051410;28;20071;-73
2021/04/25 01:41:57;;;;;;;13.37;7.30;;;5.60;72.40;;;;;;5051720;28;20037;-73
2021/04/25 01:44:24;;;;;;;13.00;8.00;;;5.50;72.40;;;;;;5052452;28;20100;-74
2021/04/25 01:46:50;;;;;;;14.70;7.93;;;5.50;72.50;;;;;;5046730;28;20034;-74
2021/04/25 01:49:15;;;;;;;15.00;8.13;;;5.40;72.50;;;;;;5056265;28;20115;-73
2021/04/25 01:51:43;;;;;;;15.53;8.50;;;5.40;72.80;;;;;;5053518;28;20049;-75
2021/04/25 01:54:09;;;;;;;13.13;8.07;;;5.30;73.00;;;;;;5056568;28;20052;-74
2021/04/25 01:56:35;;;;;;;15.77;7.93;;;5.30;73.00;;;;;;5061190;28;20112;-75
2021/04/25 01:59:01;;;;;;;16.07;8.00;;;5.30;73.40;;;;;;5072203;28;20115;-74
2021/04/25 02:01:27;;;;;;;12.03;7.50;;;5.30;73.60;;;;;;5053930;28;20071;-74
2021/04/25 02:03:54;;;;;;;14.93;8.83;;;5.30;73.40;;;;;;5051590;28;20032;-73
2021/04/25 02:06:20;;;;;;;14.07;7.80;;;5.30;73.50;;;;;;5052274;28;20130;-73
2021/04/25 02:08:45;;;;;;;17.07;8.07;;;5.30;74.00;;;;;;5051445;28;20029;-75
2021/04/25 02:11:11;;;;;;;15.90;7.80;;;5.30;74.10;;;;;;5051846;28;20446;-74
2021/04/25 02:13:37;;;;;;;17.53;8.13;;;5.40;73.50;;;;;;5052651;28;20039;-74
2021/04/25 02:16:03;;;;;;;17.63;7.37;;;5.30;73.60;;;;;;5051603;28;20029;-75
2021/04/25 02:18:29;;;;;;;16.07;7.63;;;5.20;73.90;;;;;;5052287;28;20040;-74
2021/04/25 02:20:54;;;;;;;12.87;7.33;;;5.30;74.30;;;;;;5061873;28;20036;-74
2021/04/25 02:23:20;;;;;;;15.63;7.17;;;5.20;74.10;;;;;;5065946;28;20441;-76
2021/04/25 02:25:45;;;;;;;18.20;7.60;;;5.20;74.30;;;;;;5054705;28;20040;-75
2021/04/25 02:28:11;;;;;;;12.87;7.17;;;5.20;74.70;;;;;;5071151;28;20106;-75
2021/04/25 02:30:37;;;;;;;13.73;7.10;;;5.20;74.60;;;;;;5070481;28;20032;-74
2021/04/25 02:33:03;;;;;;;16.10;7.60;;;5.20;74.80;;;;;;5070917;28;20486;-74
2021/04/25 02:35:30;;;;;;;16.23;7.70;;;5.20;74.20;;;;;;5069513;28;20067;-75
2021/04/25 02:37:57;;;;;;;17.03;8.10;;;5.10;74.60;;;;;;5049722;28;20065;-76
2021/04/25 02:40:25;;;;;;;14.30;6.87;;;5.20;75.00;;;;;;5049672;28;20434;-73
2021/04/25 02:42:53;;;;;;;14.70;7.60;;;5.10;74.70;;;;;;5049781;28;20036;-75
2021/04/25 02:45:20;;;;;;;13.73;6.93;;;5.00;75.00;;;;;;5051219;28;20029;-74
2021/04/25 02:47:51;;;;;;;12.73;7.33;;;5.00;75.60;;;;;;5036940;28;20035;-73
2021/04/25 02:50:18;;;;;;;11.87;6.87;;;5.00;75.40;;;;;;5070406;28;20059;-75
2021/04/25 02:52:44;;;;;;;15.00;7.60;;;4.90;75.50;;;;;;5071359;28;20032;-73
2021/04/25 02:55:11;;;;;;;14.33;7.50;;;4.90;75.60;;;;;;5055835;28;20029;-74
2021/04/25 02:57:38;;;;;;;16.40;7.57;;;4.90;76.00;;;;;;5063073;28;20082;-73
2021/04/25 03:00:07;;;;;;;17.20;7.50;;;5.00;76.20;;;;;;5047338;28;20021;-75
2021/04/25 03:02:33;;;;;;;15.50;7.47;;;4.90;76.50;;;;;;5049762;28;20142;-74
2021/04/25 03:04:59;;;;;;;17.53;7.50;;;5.00;76.10;;;;;;5050303;28;20400;-78
2021/04/25 03:07:24;;;;;;;15.13;8.03;;;4.90;76.30;;;;;;5015708;28;20564;-74
2021/04/25 03:09:50;;;;;;;18.33;8.20;;;5.00;76.20;;;;;;5029955;28;20112;-74
2021/04/25 03:12:16;;;;;;;15.03;7.20;;;4.90;76.10;;;;;;5045753;28;20148;-74
2021/04/25 03:14:41;;;;;;;16.13;7.63;;;4.80;75.80;;;;;;5033000;28;20063;-74
2021/04/25 03:17:07;;;;;;;13.30;7.53;;;4.80;76.50;;;;;;5049289;28;20374;-73
2021/04/25 03:19:33;;;;;;;18.10;7.67;;;4.80;76.30;;;;;;5048239;28;20042;-74
2021/04/25 03:21:58;;;;;;;16.73;8.07;;;4.80;76.30;;;;;;5050672;28;20067;-75
2021/04/25 03:24:24;;;;;;;14.67;8.03;;;4.80;76.40;;;;;;5033794;28;20033;-73
2021/04/25 03:26:50;;;;;;;14.73;7.67;;;4.80;76.60;;;;;;5049953;28;20468;-75
2021/04/25 03:29:15;;;;;;;15.87;7.87;;;4.80;76.50;;;;;;5032061;28;20040;-73
2021/04/25 03:31:41;;;;;;;13.97;7.27;;;4.80;76.70;;;;;;5028602;28;20076;-74
2021/04/25 03:34:07;;;;;;;17.47;8.33;;;4.80;76.80;;;;;;5029785;28;20483;-74
2021/04/25 03:36:33;;;;;;;14.13;8.03;;;4.80;76.80;;;;;;5030559;28;20033;-74
2021/04/25 03:38:59;;;;;;;18.77;9.47;;;4.70;76.30;;;;;;5030777;28;20033;-73
2021/04/25 03:41:26;;;;;;;16.33;7.80;;;4.50;76.60;;;;;;5029834;28;20040;-74
2021/04/25 03:43:53;;;;;;;16.63;8.13;;;4.40;77.10;;;;;;5029329;28;20037;-73
2021/04/25 03:46:18;;;;;;;16.50;8.40;;;4.50;77.70;;;;;;5046022;28;20116;-73
2021/04/25 03:48:44;;;;;;;16.60;7.50;;;4.50;77.70;;;;;;5050354;28;20171;-74
2021/04/25 03:51:10;;;;;;;18.93;7.67;;;4.60;77.90;;;;;;5049349;28;20043;-74
2021/04/25 03:53:35;;;;;;;17.83;8.23;;;4.60;78.00;;;;;;5049158;28;20041;-73
2021/04/25 03:56:01;;;;;;;15.13;8.50;;;4.60;77.20;;;;;;5032437;28;20078;-74
2021/04/25 03:58:27;;;;;;;13.40;7.00;;;4.60;77.60;;;;;;5049700;28;20029;-74
2021/04/25 04:00:52;;;;;;;15.40;8.37;;;4.50;77.90;;;;;;5069879;28;20386;-73
2021/04/25 04:03:18;;;;;;;15.57;7.93;;;4.60;77.90;;;;;;5068917;28;20549;-74
2021/04/25 04:05:43;;;;;;;13.83;7.27;;;4.60;77.80;;;;;;5066717;28;20055;-74
2021/04/25 04:08:09;;;;;;;16.63;7.70;;;4.60;77.90;;;;;;5031707;28;20075;-75
2021/04/25 04:10:35;;;;;;;15.10;8.33;;;4.60;77.80;;;;;;5050219;28;20402;-75
2021/04/25 04:13:00;;;;;;;15.13;7.57;;;4.70;77.90;;;;;;5046629;28;20494;-74
2021/04/25 04:15:26;;;;;;;14.30;8.37;;;4.70;77.90;;;;;;5048033;28;20037;-74
2021/04/25 04:17:51;;;;;;;16.67;8.10;;;4.80;77.90;;;;;;5050005;28;20503;-74
2021/04/25 04:20:17;;;;;;;15.70;7.60;;;4.90;77.60;;;;;;5049512;28;20464;-75
2021/04/25 04:22:43;;;;;;;15.30;7.80;;;4.90;77.10;;;;;;5050067;28;20040;-75
2021/04/25 04:25:09;;;;;;;18.03;7.67;;;4.90;76.80;;;;;;5065831;28;20462;-77
2021/04/25 04:27:34;;;;;;;14.57;7.80;;;4.80;76.20;;;;;;5069964;28;20055;-74
2021/04/25 04:30:00;;;;;;;17.27;8.67;;;4.70;76.30;;;;;;5069937;28;20033;-74
2021/04/25 04:32:26;;;;;;;16.83;8.67;;;4.70;76.10;;;;;;5069070;28;20402;-73
2021/04/25 04:34:52;;;;;;;16.33;8.00;;;4.70;76.40;;;;;;5070065;28;20056;-74
2021/04/25 04:37:17;;;;;;;14.60;7.40;;;4.90;77.00;;;;;;5069315;28;20048;-74
2021/04/25 04:39:43;;;;;;;13.40;7.93;;;5.10;77.00;;;;;;5068883;28;20530;-74
2021/04/25 04:42:08;;;;;;;15.37;8.10;;;5.40;76.50;;;;;;5054104;28;20059;-74
2021/04/25 04:44:34;;;;;;;11.20;7.17;;;5.40;75.80;;;;;;5051973;28;20025;-74
2021/04/25 04:47:00;;;;;;;16.10;8.43;;;5.60;76.00;;;;;;5053742;28;20464;-74
2021/04/25 04:49:25;;;;;;;21.70;8.93;;;5.80;75.50;;;;;;5052751;28;20041;-73
2021/04/25 04:51:51;;;;;;;15.03;8.37;;;5.80;74.40;;;;;;5052005;28;20037;-74
2021/04/25 04:54:16;;;;;;;15.40;7.77;;;5.80;74.40;;;;;;5051726;28;20425;-73
2021/04/25 04:56:42;;;;;;;16.47;8.03;;;5.80;74.60;;;;;;5053875;28;20052;-74
2021/04/25 04:59:08;;;;;;;19.17;7.90;;;6.00;74.60;;;;;;5053838;28;20114;-74
2021/04/25 05:01:34;;;;;;;14.90;7.57;;;6.10;74.10;;;;;;5041034;28;20064;-74
2021/04/25 05:04:00;;;;;;;14.80;7.93;;;6.20;74.00;;;;;;5034005;28;20032;-74
2021/04/25 05:06:25;;;;;;;14.67;7.67;;;6.40;73.70;;;;;;5032780;28;20140;-74
2021/04/25 05:08:51;;;;;;;15.00;7.30;;;6.30;72.90;;;;;;5037823;28;20029;-75
2021/04/25 05:11:17;;;;;;;13.97;7.50;;;6.20;72.70;;;;;;5052727;28;20124;-76
2021/04/25 05:13:43;;;;;;;17.03;6.93;;;6.30;73.50;;;;;;5053666;28;20017;-74
2021/04/25 05:16:08;;;;;;;11.50;7.23;;;6.50;73.30;;;;;;5053668;28;20025;-73
2021/04/25 05:18:34;;;;;;;15.10;7.30;;;6.60;72.80;;;;;;5052734;28;20441;-73
2021/04/25 05:21:00;;;;;;;14.80;7.93;;;6.70;72.90;;;;;;5053429;28;20027;-73
2021/04/25 05:23:26;;;;;;;18.33;7.17;;;6.70;72.20;;;;;;5043058;28;20479;-74
2021/04/25 05:25:51;;;;;;;13.80;7.10;;;6.40;71.50;;;;;;5054757;28;20043;-74
2021/04/25 05:28:17;;;;;;;12.17;6.17;;;6.40;72.30;;;;;;5053415;28;20032;-76
2021/04/25 05:30:43;;;;;;;11.47;6.43;;;6.50;73.10;;;;;;5053074;28;20048;-75
2021/04/25 05:33:08;;;;;;;12.30;6.63;;;6.80;73.20;;;;;;5051543;28;20080;-74
2021/04/25 05:35:34;;;;;;;14.37;6.83;;;7.00;72.90;;;;;;5052792;28;20036;-75
2021/04/25 05:38:00;;;;;;;15.60;7.80;;;7.20;72.00;;;;;;5039600;28;20048;-74
2021/04/25 05:40:25;;;;;;;11.50;6.77;;;7.30;71.60;;;;;;5037031;28;20041;-75
2021/04/25 05:42:51;;;;;;;11.83;6.60;;;7.30;71.10;;;;;;5059795;28;20071;-75
2021/04/25 05:45:20;;;;;;;10.27;6.00;;;7.40;71.30;;;;;;5052871;28;20044;-74
2021/04/25 05:47:56;;;;;;;10.37;5.93;;;7.60;71.40;;;;;;5051299;28;20498;-74
2021/04/25 05:50:24;;;;;;;13.33;7.00;;;7.70;70.90;;;;;;5052355;28;20033;-76
2021/04/25 05:52:51;;;;;;;14.47;6.13;;;7.70;70.00;;;;;;5052807;28;20033;-75
2021/04/25 05:55:17;;;;;;;10.47;5.97;;;7.80;70.70;;;;;;5050251;28;20025;-75
2021/04/25 05:57:43;;;;;;;11.53;6.23;;;8.00;70.60;;;;;;5037047;28;20021;-74
2021/04/25 06:00:12;;;;;;;12.67;6.83;;;8.10;69.80;;;;;;5031672;28;20049;-74
2021/04/25 06:02:38;;;;;;;10.07;5.90;;;8.10;68.80;;;;;;5031943;28;20028;-74
2021/04/25 06:05:04;;;;;;;11.53;5.77;;;8.10;69.20;;;;;;5037986;28;20028;-73
2021/04/25 06:07:30;;;;;;;9.70;5.50;;;8.20;69.20;;;;;;5048111;28;20048;-73
2021/04/25 06:09:56;;;;;;;13.47;6.23;;;8.20;68.00;;;;;;5051185;28;20518;-73
2021/04/25 06:12:22;;;;;;;12.37;5.70;;;8.30;67.80;;;;;;5050610;28;20076;-77
2021/04/25 06:14:48;;;;;;;15.97;6.20;;;8.40;68.60;;;;;;5050390;28;20075;-75
2021/04/25 06:17:13;;;;;;;7.17;4.37;;;8.40;66.80;;;;;;5025115;28;20049;-74
2021/04/25 06:19:39;;;;;;;13.73;5.70;;;8.50;68.40;;;;;;5030123;28;20040;-74
2021/04/25 06:22:05;;;;;;;9.47;5.17;;;8.60;64.50;;;;;;5031156;28;20116;-75
2021/04/25 06:24:31;;;;;;;11.07;5.30;;;8.40;66.40;;;;;;5029906;28;20096;-74
2021/04/25 06:26:57;;;;;;;18.47;5.70;;;8.50;66.30;;;;;;5014092;28;20479;-74
2021/04/25 06:29:23;;;;;;;11.83;6.10;;;8.40;65.90;;;;;;5031830;28;20038;-74
2021/04/25 06:31:48;;;;;;;13.20;5.83;;;8.60;66.10;;;;;;5031314;28;20867;-73
2021/04/25 06:34:14;;;;;;;12.13;5.90;;;8.70;65.00;;;;;;5030518;28;20069;-74
2021/04/25 06:36:43;;;;;;;11.90;4.47;;;8.70;64.90;;;;;;5031269;28;20171;-74
2021/04/25 06:39:09;;;;;;;11.03;6.10;;;8.80;63.40;;;;;;5030567;28;20109;-76
2021/04/25 06:41:35;;;;;;;12.23;4.57;;;8.70;62.70;;;;;;5045987;28;20040;-74
2021/04/25 06:44:01;;;;;;;11.20;4.40;;;8.50;61.40;;;;;;5030151;28;20030;-74
2021/04/25 06:46:27;;;;;;;8.03;4.27;;;8.30;62.00;;;;;;5030660;28;20079;-77
2021/04/25 06:48:53;;;;;;;10.97;4.70;;;8.30;61.00;;;;;;5050608;28;20022;-74
2021/04/25 06:51:19;;;;;;;10.30;4.33;;;8.30;62.10;;;;;;5050233;28;20025;-74
2021/04/25 06:53:45;;;;;;;8.83;4.20;;;8.20;61.00;;;;;;5032792;28;20130;-76
2021/04/25 06:56:11;;;;;;;10.07;5.07;;;8.30;61.50;;;;;;5050894;28;20394;-75
2021/04/25 06:58:36;;;;;;;9.97;4.60;;;8.30;61.60;;;;;;5050297;28;20040;-74
2021/04/25 07:01:02;;;;;;;10.73;4.77;;;8.20;60.10;;;;;;5049181;28;20033;-76
2021/04/25 07:03:28;;;;;;;10.30;5.00;;;8.30;61.30;;;;;;5051354;28;20037;-75
2021/04/25 07:05:53;;;;;;;9.00;3.90;;;8.50;61.00;;;;;;5047851;28;20148;-75
2021/04/25 07:08:23;;;;;;;12.20;4.57;;;8.80;59.60;;;;;;5050561;28;20419;-75
2021/04/25 07:10:48;;;;;;;15.73;4.87;;;8.70;58.70;;;;;;5044006;28;20029;-75
2021/04/25 07:13:14;;;;;;;8.63;3.73;;;8.80;58.80;;;;;;5021431;28;20120;-74
2021/04/25 07:15:40;;;;;;;10.30;3.33;;;8.70;56.90;;;;;;5048414;28;20037;-74
2021/04/25 07:18:05;;;;;;;10.03;4.40;;;8.60;57.40;;;;;;5048681;28;20029;-75
2021/04/25 07:20:31;;;;;;;8.30;3.70;;;8.50;58.00;;;;;;5034965;28;20532;-74
2021/04/25 07:22:57;;;;;;;8.87;3.77;;;8.50;57.90;;;;;;5048434;28;20091;-73
2021/04/25 07:25:22;;;;;;;10.27;3.50;;;8.20;57.70;;;;;;5052136;28;20482;-73
2021/04/25 07:27:48;;;;;;;8.27;3.80;;;7.90;58.10;;;;;;5047920;28;20037;-74
2021/04/25 07:30:14;;;;;;;11.43;3.83;;;7.80;58.80;;;;;;5047813;28;20049;-74
2021/04/25 07:32:40;;;;;;;14.93;6.33;;;8.10;58.40;;;;;;5038903;28;20109;-75
2021/04/25 07:35:07;;;;;;;8.63;3.13;;;8.10;58.50;;;;;;5049418;28;20115;-75
2021/04/25 07:37:33;;;;;;;8.73;3.50;;;8.10;56.90;;;;;;5040377;28;20022;-74
2021/04/25 07:39:58;;;;;;;9.17;4.23;;;7.90;57.10;;;;;;5033032;28;20026;-74
2021/04/25 07:42:25;;;;;;;12.37;4.50;;;7.90;57.80;;;;;;5040994;28;20035;-75
2021/04/25 07:44:50;;;;;;;7.13;4.07;;;7.90;58.50;;;;;;5048128;28;20082;-75
2021/04/25 07:47:16;;;;;;;13.40;6.27;;;8.10;58.60;;;;;;5047811;28;20037;-75
2021/04/25 07:49:42;;;;;;;8.03;3.47;;;8.30;58.60;;;;;;5047516;28;20032;-74
2021/04/25 07:52:07;;;;;;;16.60;7.53;;;8.40;56.70;;;;;;5048048;28;20486;-76
2021/04/25 07:54:33;;;;;;;10.93;4.50;;;8.60;59.10;;;;;;5042330;28;20067;-75
2021/04/25 07:57:00;;;;;;;9.23;2.50;;;9.10;57.60;;;;;;5023385;28;20104;-75
2021/04/25 07:59:26;;;;;;;10.67;5.57;;;9.10;54.60;;;;;;5049716;28;20492;-74
2021/04/25 08:01:52;;;;;;;11.53;4.33;;;9.00;56.70;;;;;;5023606;28;20111;-76
2021/04/25 08:04:17;;;;;;;6.13;1.67;;;9.30;57.30;;;;;;5050423;28;20470;-76
2021/04/25 08:06:43;;;;;;;8.53;1.83;;;9.70;53.40;;;;;;5049329;28;20845;-77
2021/04/25 08:09:10;;;;;;;6.80;2.50;;;10.00;51.70;;;;;;5048174;28;20041;-76
2021/04/25 08:11:36;;;;;;;6.33;1.20;;;10.00;52.60;;;;;;5044661;28;20041;-76
2021/04/25 08:14:02;;;;;;;7.70;3.07;;;9.70;51.00;;;;;;5047278;28;20063;-74
2021/04/25 08:16:28;;;;;;;8.50;2.70;;;9.40;52.90;;;;;;5049509;28;20029;-74
2021/04/25 08:18:54;;;;;;;9.30;4.17;;;9.80;54.40;;;;;;5048260;28;20033;-75
2021/04/25 08:21:20;;;;;;;8.87;2.50;;;10.30;54.10;;;;;;5049367;28;20502;-75
2021/04/25 08:23:46;;;;;;;10.03;3.90;;;10.80;51.90;;;;;;5047218;28;20029;-76
2021/04/25 08:26:12;;;;;;;6.70;2.37;;;11.10;51.80;;;;;;5014501;28;20029;-76
2021/04/25 08:28:37;;;;;;;9.33;3.10;;;11.10;48.20;;;;;;5062307;28;20391;-74
2021/04/25 08:31:03;;;;;;;8.83;2.87;;;10.40;48.80;;;;;;5029930;28;20038;-74
2021/04/25 08:33:29;;;;;;;8.77;3.00;;;10.50;50.80;;;;;;5039973;28;20033;-74
2021/04/25 08:35:54;;;;;;;6.37;1.80;;;10.50;49.40;;;;;;5059794;28;20029;-73
2021/04/25 08:38:20;;;;;;;10.07;2.97;;;10.20;48.90;;;;;;5051275;28;20569;-74
2021/04/25 08:40:46;;;;;;;7.57;2.63;;;10.20;51.10;;;;;;5068720;28;20059;-78
2021/04/25 08:43:14;;;;;;;18.23;5.03;;;10.20;50.20;;;;;;5049294;28;20040;-74
2021/04/25 08:45:43;;;;;;;15.83;5.80;;;10.30;51.20;;;;;;5048109;28;20376;-74
2021/04/25 08:48:12;;;;;;;7.50;2.23;;;10.40;50.00;;;;;;5048309;28;20017;-74
2021/04/25 08:50:38;;;;;;;7.20;2.83;;;10.50;49.30;;;;;;5049306;28;20095;-77
2021/04/25 08:53:04;;;;;;;8.67;2.97;;;10.60;49.20;;;;;;5048575;28;20033;-76
2021/04/25 08:55:31;;;;;;;10.77;3.30;;;10.70;49.20;;;;;;5049560;28;20350;-74
2021/04/25 08:57:56;;;;;;;13.67;6.13;;;10.40;48.80;;;;;;5047825;28;20091;-74
2021/04/25 09:00:23;;;;;;;8.57;2.77;;;10.30;50.10;;;;;;5047158;28;20463;-74
2021/04/25 09:02:52;;;;;;;8.77;3.50;;;10.40;48.80;;;;;;5044280;28;20521;-77
2021/04/25 09:05:18;;;;;;;10.60;4.43;;;10.60;49.70;;;;;;5043878;28;20033;-75
2021/04/25 09:08:05;;;;;;;18.53;8.47;;;10.60;49.10;;;;;;5050198;28;20044;-74
2021/04/25 09:10:36;;;;;;;13.53;4.30;;;10.70;50.70;;;;;;5047214;28;20420;-74
2021/04/25 09:13:26;;;;;;;16.97;6.83;;;11.40;48.80;;;;;;5046084;28;20064;-73
2021/04/25 09:15:53;;;;;;;12.03;4.67;;;11.70;48.30;;;;;;5049336;28;20107;-78
2021/04/25 09:18:31;;;;;;;13.23;4.20;;;11.90;48.60;;;;;;5046909;28;20032;-74
2021/04/25 09:21:05;;;;;;;12.83;3.47;;;12.00;47.60;;;;;;5044255;28;20074;-74
2021/04/25 09:23:31;;;;;;;13.33;6.90;;;12.60;46.60;;;;;;5046926;28;20029;-75
2021/04/25 09:26:04;;;;;;;10.50;3.30;;;12.90;47.40;;;;;;5048479;28;20508;-75
2021/04/25 09:28:30;;;;;;;5.22;1.77;;;13.50;44.50;;;;;;5047185;28;20025;-75
2021/04/25 09:31:13;;;;;;;7.37;3.00;;;13.50;43.50;;;;;;5046376;28;20119;-74
2021/04/25 09:33:51;;;;;;;7.50;2.60;;;13.60;44.10;;;;;;5052113;28;20029;-75
2021/04/25 09:36:20;;;;;;;9.98;3.97;;;14.20;41.90;;;;;;5048333;28;20029;-73
2021/04/25 09:38:47;;;;;;;7.57;3.42;;;13.70;42.00;;;;;;5054116;28;20113;-74
2021/04/25 09:41:35;;;;;;;7.15;2.72;;;14.40;43.40;;;;;;5050495;28;20161;-74
2021/04/25 09:44:01;;;;;;;5.68;1.50;;;15.20;40.90;;;;;;5052712;28;20017;-74
2021/04/25 09:47:05;;;;;;;4.90;1.20;;;15.50;40.00;;;;;;5050156;28;20469;-73
2021/04/25 09:49:49;;;;;;;6.65;1.27;;;16.30;37.80;;;;;;5051860;28;20025;-73
2021/04/25 09:52:37;;;;;;;6.82;2.08;;;16.30;37.30;;;;;;5049831;28;20677;-74
2021/04/25 09:55:21;;;;;;;5.88;2.17;;;15.70;39.60;;;;;;5051374;28;20052;-74
2021/04/25 09:57:49;;;;;;;8.40;2.65;;;15.70;39.30;;;;;;5047486;28;20017;-72
2021/04/25 10:00:16;;;;;;;10.32;3.97;;;15.80;39.20;;;;;;5049622;28;20013;-76
2021/04/25 10:03:10;;;;;;;5.75;0.95;;;16.20;40.00;;;;;;5051517;28;20029;-74
2021/04/25 10:05:55;;;;;;;10.60;3.40;;;15.90;37.30;;;;;;5051045;28;20036;-75
2021/04/25 10:08:30;;;;;;;8.65;2.60;;;15.80;39.50;;;;;;5050484;28;20083;-77
2021/04/25 10:10:57;;;;;;;5.93;2.33;;;15.20;39.10;;;;;;5066521;28;20508;-78
2021/04/25 10:13:24;;;;;;;12.07;2.22;;;15.70;40.30;;;;;;5050686;28;20103;-75
2021/04/25 10:15:51;;;;;;;4.55;1.02;;;16.10;38.10;;;;;;5049842;28;20025;-75
2021/04/25 10:18:19;;;;;;;5.05;1.13;;;15.90;37.40;;;;;;5051374;28;20534;-76
2021/04/25 10:20:50;;;;;;;4.00;1.70;;;15.40;37.70;;;;;;5050695;28;20049;-75
2021/04/25 10:23:16;;;;;;;5.20;0.98;;;14.90;39.60;;;;;;5049889;28;20079;-76
2021/04/25 10:25:42;;;;;;;4.28;1.17;;;14.30;39.20;;;;;;5046803;28;20095;-74
2021/04/25 10:28:18;;;;;;;6.53;1.35;;;13.80;40.90;;;;;;5048639;28;20025;-76
2021/04/25 10:30:46;;;;;;;5.63;0.88;;;13.50;41.40;;;;;;5049505;28;20364;-74
2021/04/25 10:33:12;;;;;;;8.13;1.75;;;13.50;41.60;;;;;;5032540;28;20032;-75
2021/04/25 10:35:37;;;;;;;3.33;0.95;;;13.80;43.50;;;;;;5049044;28;20029;-74
2021/04/25 10:38:05;;;;;;;7.97;1.20;;;14.30;40.90;;;;;;5051953;28;21540;-79
2021/04/25 10:40:32;;;;;;;4.90;1.30;;;14.20;40.30;;;;;;5044171;28;20419;-75
2021/04/25 10:43:09;;;;;;;6.28;1.00;;;14.10;42.30;;;;;;5047433;28;20048;-75
2021/04/25 10:46:01;;;;;;;4.22;1.63;;;14.20;41.00;;;;;;5044332;28;20032;-75
2021/04/25 10:48:28;;;;;;;5.55;1.45;;;14.10;42.10;;;;;;5054084;28;20079;-75
2021/04/25 10:51:13;;;;;;;4.20;1.30;;;14.60;41.00;;;;;;5041970;28;20120;-76
2021/04/25 10:53:42;;;;;;;5.68;1.00;;;15.50;40.80;;;;;;5041101;28;20029;-76
2021/04/25 10:56:14;;;;;;;4.43;0.90;;;16.20;38.60;;;;;;5039784;28;20030;-76
2021/04/25 10:58:41;;;;;;;4.07;1.10;;;15.90;37.90;;;;;;5039738;28;20085;-75
2021/04/25 11:01:08;;;;;;;4.70;1.30;;;15.50;37.70;;;;;;5041774;28;20086;-77
2021/04/25 11:03:33;;;;;;;5.50;1.00;;;15.30;39.10;;;;;;5046505;28;20025;-74
2021/04/25 11:06:00;;;;;;;4.78;1.10;;;14.70;38.90;;;;;;5041951;28;20106;-75
2021/04/25 11:08:32;;;;;;;4.82;1.00;;;14.80;41.00;;;;;;5041138;28;20107;-76
2021/04/25 11:10:58;;;;;;;6.18;1.52;;;14.70;39.40;;;;;;5045436;28;20470;-76
2021/04/25 11:13:33;;;;;;;5.90;1.00;;;14.70;39.40;;;;;;5044546;28;20033;-76
2021/04/25 11:16:16;;;;;;;4.40;1.38;;;14.10;40.70;;;;;;5043150;28;20033;-77
2021/04/25 11:19:02;;;;;;;3.85;1.10;;;14.70;42.20;;;;;;5045855;28;20044;-75
2021/04/25 11:21:39;;;;;;;4.93;1.10;;;15.10;38.70;;;;;;5050463;28;20282;-75
2021/04/25 11:24:05;;;;;;;5.60;1.08;;;14.80;39.80;;;;;;5042889;28;20066;-75
2021/04/25 11:26:46;;;;;;;5.82;1.10;;;15.10;41.20;;;;;;5048678;28;20033;-74
2021/04/25 11:29:16;;;;;;;5.22;1.00;;;15.00;39.20;;;;;;5044139;28;20025;-78
2021/04/25 11:31:48;;;;;;;4.93;1.08;;;14.80;39.10;;;;;;5029894;28;20036;-75
2021/04/25 11:34:23;;;;;;;4.88;0.93;;;14.60;40.00;;;;;;5033293;28;20441;-75
2021/04/25 11:36:49;;;;;;;4.85;1.23;;;14.20;40.30;;;;;;5031276;28;20018;-74
2021/04/25 11:39:18;;;;;;;5.82;0.90;;;14.50;41.30;;;;;;5032392;28;20029;-75
2021/04/25 11:41:44;;;;;;;3.50;0.90;;;14.20;40.30;;;;;;5032773;28;20037;-76
2021/04/25 11:44:10;;;;;;;6.07;1.07;;;13.70;41.60;;;;;;5032159;28;20521;-79
2021/04/25 11:46:36;;;;;;;5.13;1.13;;;13.60;41.60;;;;;;5040702;28;20115;-76
2021/04/25 11:49:04;;;;;;;9.90;1.20;;;13.60;42.90;;;;;;5036669;28;20414;-76
2021/04/25 11:51:32;;;;;;;8.93;1.20;;;13.80;41.40;;;;;;5037367;28;20890;-75
2021/04/25 11:53:58;;;;;;;6.93;1.10;;;14.10;41.90;;;;;;5032924;28;20156;-77
2021/04/25 11:56:26;;;;;;;4.57;1.30;;;14.50;41.00;;;;;;5049936;28;20099;-76
2021/04/25 11:58:51;;;;;;;5.47;1.20;;;14.90;41.50;;;;;;5045747;28;20025;-76
2021/04/25 12:01:23;;;;;;;4.18;1.20;;;15.10;40.00;;;;;;5015645;28;20091;-75
2021/04/25 12:03:49;;;;;;;3.87;1.07;;;15.40;40.90;;;;;;5033412;28;20124;-76
2021/04/25 12:06:16;;;;;;;6.07;1.27;;;15.80;38.70;;;;;;5047882;28;20107;-79
2021/04/25 12:08:55;;;;;;;5.65;1.70;;;15.50;38.20;;;;;;5019858;28;20032;-74
2021/04/25 12:11:22;;;;;;;5.63;1.92;;;15.50;39.10;;;;;;5042685;28;20500;-76
2021/04/25 12:13:48;;;;;;;7.13;2.70;;;15.50;39.80;;;;;;5050435;28;20057;-76
2021/04/25 12:16:18;;;;;;;6.07;1.17;;;16.10;39.80;;;;;;5048890;28;20466;-79
2021/04/25 12:18:44;;;;;;;3.60;0.90;;;15.90;37.30;;;;;;5050259;28;20025;-74
2021/04/25 12:21:21;;;;;;;7.95;1.80;;;15.30;38.00;;;;;;5049376;28;20124;-77
2021/04/25 12:23:54;;;;;;;7.53;2.10;;;14.60;39.80;;;;;;5047457;28;20025;-75
2021/04/25 12:26:22;;;;;;;5.28;2.95;;;14.90;40.60;;;;;;5050324;28;20055;-76
2021/04/25 12:28:56;;;;;;;4.30;1.30;;;15.00;41.20;;;;;;5036017;28;20037;-75
2021/04/25 12:31:25;;;;;;;7.88;1.45;;;15.50;40.50;;;;;;5049658;28;20024;-74
2021/04/25 12:33:54;;;;;;;9.73;2.40;;;15.70;38.90;;;;;;5050113;28;20099;-74
2021/04/25 12:36:26;;;;;;;10.10;3.55;;;15.30;40.00;;;;;;5047490;28;20025;-78
2021/04/25 12:39:02;;;;;;;4.63;2.83;;;15.60;40.30;;;;;;5050576;28;20060;-75
2021/04/25 12:41:47;;;;;;;9.02;3.33;;;16.10;39.70;;;;;;5048323;28;20033;-75
2021/04/25 12:44:15;;;;;;;6.30;2.50;;;16.60;38.30;;;;;;5059681;28;20076;-76
2021/04/25 12:46:57;;;;;;;6.63;1.77;;;16.70;37.30;;;;;;5048646;28;20498;-75
2021/04/25 12:49:36;;;;;;;8.32;4.45;;;16.40;36.90;;;;;;5041972;28;20021;-78
2021/04/25 12:52:03;;;;;;;6.03;1.60;;;15.90;38.40;;;;;;5047032;28;20035;-76